sensor_id;sensor_type;location;lat;lon;timestamp;P1;durP1;ratioP1;P2;durP2;ratioP2
31390;SDS011;18022;45.492;11.548;2023-05-10T00:01:08;4.70;;;4.30;;
31390;SDS011;18022;45.492;11.548;2023-05-10T00:03:35;5.00;;;3.75;;
31390;SDS011;18022;45.492;11.548;2023-05-10T00:06:01;6.13;;;3.50;;
31390;SDS011;18022;45.492;11.548;2023-05-10T00:08:27;6.13;;;3.80;;
31390;SDS011;18022;45.492;11.548;2023-05-10T00:10:53;5.63;;;3.30;;
31390;SDS011;18022;45.492;11.548;2023-05-10T00:13:19;3.00;;;2.78;;
31390;SDS011;18022;45.492;11.548;2023-05-10T00:15:45;4.20;;;2.65;;
31390;SDS011;18022;45.492;11.548;2023-05-10T00:18:11;4.47;;;3.08;;
31390;SDS011;18022;45.492;11.548;2023-05-10T00:20:37;2.47;;;2.28;;
31390;SDS011;18022;45.492;11.548;2023-05-10T00:23:03;6.30;;;2.67;;
31390;SDS011;18022;45.492;11.548;2023-05-10T00:25:29;6.22;;;2.55;;
31390;SDS011;18022;45.492;11.548;2023-05-10T00:27:55;4.07;;;2.20;;
31390;SDS011;18022;45.492;11.548;2023-05-10T00:30:22;5.75;;;2.40;;
31390;SDS011;18022;45.492;11.548;2023-05-10T00:32:48;2.88;;;2.05;;
31390;SDS011;18022;45.492;11.548;2023-05-10T00:35:15;2.95;;;2.15;;
31390;SDS011;18022;45.492;11.548;2023-05-10T00:37:41;2.88;;;2.20;;
31390;SDS011;18022;45.492;11.548;2023-05-10T00:40:07;3.58;;;2.25;;
31390;SDS011;18022;45.492;11.548;2023-05-10T00:42:33;4.32;;;2.45;;
31390;SDS011;18022;45.492;11.548;2023-05-10T00:44:59;3.92;;;1.88;;
31390;SDS011;18022;45.492;11.548;2023-05-10T00:47:25;5.53;;;1.90;;
31390;SDS011;18022;45.492;11.548;2023-05-10T00:49:51;2.60;;;1.92;;
31390;SDS011;18022;45.492;11.548;2023-05-10T00:52:17;4.20;;;2.10;;
31390;SDS011;18022;45.492;11.548;2023-05-10T00:54:44;4.57;;;1.90;;
31390;SDS011;18022;45.492;11.548;2023-05-10T00:57:10;3.17;;;1.65;;
31390;SDS011;18022;45.492;11.548;2023-05-10T00:59:36;3.47;;;1.73;;
31390;SDS011;18022;45.492;11.548;2023-05-10T01:02:02;5.43;;;2.20;;
31390;SDS011;18022;45.492;11.548;2023-05-10T01:04:28;3.00;;;1.70;;
31390;SDS011;18022;45.492;11.548;2023-05-10T01:06:55;2.73;;;1.70;;
31390;SDS011;18022;45.492;11.548;2023-05-10T01:09:22;2.00;;;1.80;;
31390;SDS011;18022;45.492;11.548;2023-05-10T01:11:48;2.17;;;1.98;;
31390;SDS011;18022;45.492;11.548;2023-05-10T01:14:15;4.07;;;1.90;;
31390;SDS011;18022;45.492;11.548;2023-05-10T01:16:43;2.95;;;1.80;;
31390;SDS011;18022;45.492;11.548;2023-05-10T01:19:16;1.98;;;1.55;;
31390;SDS011;18022;45.492;11.548;2023-05-10T01:21:43;2.17;;;1.98;;
31390;SDS011;18022;45.492;11.548;2023-05-10T01:34:31;2.80;;;1.75;;
31390;SDS011;18022;45.492;11.548;2023-05-10T01:37:06;4.60;;;1.70;;
31390;SDS011;18022;45.492;11.548;2023-05-10T01:39:39;3.42;;;2.15;;
31390;SDS011;18022;45.492;11.548;2023-05-10T01:42:14;5.03;;;1.88;;
31390;SDS011;18022;45.492;11.548;2023-05-10T01:47:13;4.78;;;1.77;;
31390;SDS011;18022;45.492;11.548;2023-05-10T01:49:41;4.15;;;1.80;;
31390;SDS011;18022;45.492;11.548;2023-05-10T01:52:10;2.35;;;1.92;;
31390;SDS011;18022;45.492;11.548;2023-05-10T01:54:41;2.40;;;1.80;;
31390;SDS011;18022;45.492;11.548;2023-05-10T01:57:08;2.28;;;1.77;;
31390;SDS011;18022;45.492;11.548;2023-05-10T01:59:37;3.17;;;1.60;;
31390;SDS011;18022;45.492;11.548;2023-05-10T02:02:05;3.67;;;2.35;;
31390;SDS011;18022;45.492;11.548;2023-05-10T02:04:33;2.15;;;2.00;;
31390;SDS011;18022;45.492;11.548;2023-05-10T02:07:01;2.72;;;2.03;;
31390;SDS011;18022;45.492;11.548;2023-05-10T02:09:27;2.97;;;1.85;;
31390;SDS011;18022;45.492;11.548;2023-05-10T02:11:54;3.38;;;2.10;;
31390;SDS011;18022;45.492;11.548;2023-05-10T02:14:21;2.67;;;2.10;;
31390;SDS011;18022;45.492;11.548;2023-05-10T02:19:15;4.07;;;2.00;;
31390;SDS011;18022;45.492;11.548;2023-05-10T02:21:42;2.58;;;2.20;;
31390;SDS011;18022;45.492;11.548;2023-05-10T02:24:09;2.22;;;2.00;;
31390;SDS011;18022;45.492;11.548;2023-05-10T02:26:36;2.10;;;1.90;;
31390;SDS011;18022;45.492;11.548;2023-05-10T02:29:03;3.35;;;2.10;;
31390;SDS011;18022;45.492;11.548;2023-05-10T02:31:32;3.55;;;2.28;;
31390;SDS011;18022;45.492;11.548;2023-05-10T02:33:58;4.90;;;2.23;;
31390;SDS011;18022;45.492;11.548;2023-05-10T02:36:25;5.63;;;2.00;;
31390;SDS011;18022;45.492;11.548;2023-05-10T02:38:52;4.07;;;1.95;;
31390;SDS011;18022;45.492;11.548;2023-05-10T02:41:20;3.15;;;2.10;;
31390;SDS011;18022;45.492;11.548;2023-05-10T02:43:47;2.40;;;2.20;;
31390;SDS011;18022;45.492;11.548;2023-05-10T02:46:15;6.00;;;2.13;;
31390;SDS011;18022;45.492;11.548;2023-05-10T02:48:41;3.25;;;2.35;;
31390;SDS011;18022;45.492;11.548;2023-05-10T02:51:07;2.40;;;2.20;;
31390;SDS011;18022;45.492;11.548;2023-05-10T02:53:34;2.88;;;2.28;;
31390;SDS011;18022;45.492;11.548;2023-05-10T02:56:06;5.05;;;2.33;;
31390;SDS011;18022;45.492;11.548;2023-05-10T02:58:36;3.63;;;2.30;;
31390;SDS011;18022;45.492;11.548;2023-05-10T03:01:02;3.78;;;2.25;;
31390;SDS011;18022;45.492;11.548;2023-05-10T03:03:28;3.67;;;2.38;;
31390;SDS011;18022;45.492;11.548;2023-05-10T03:05:54;9.30;;;2.72;;
31390;SDS011;18022;45.492;11.548;2023-05-10T03:08:21;3.40;;;2.30;;
31390;SDS011;18022;45.492;11.548;2023-05-10T03:10:50;2.85;;;2.10;;
31390;SDS011;18022;45.492;11.548;2023-05-10T03:13:32;3.05;;;2.67;;
31390;SDS011;18022;45.492;11.548;2023-05-10T03:16:08;9.40;;;2.67;;
31390;SDS011;18022;45.492;11.548;2023-05-10T03:18:37;5.63;;;2.50;;
31390;SDS011;18022;45.492;11.548;2023-05-10T03:21:04;5.65;;;2.30;;
31390;SDS011;18022;45.492;11.548;2023-05-10T03:23:35;4.68;;;2.42;;
31390;SDS011;18022;45.492;11.548;2023-05-10T03:26:01;3.13;;;2.30;;
31390;SDS011;18022;45.492;11.548;2023-05-10T03:28:27;6.00;;;2.55;;
31390;SDS011;18022;45.492;11.548;2023-05-10T03:30:53;3.22;;;2.65;;
31390;SDS011;18022;45.492;11.548;2023-05-10T03:33:19;2.65;;;2.42;;
31390;SDS011;18022;45.492;11.548;2023-05-10T03:35:46;2.85;;;2.60;;
31390;SDS011;18022;45.492;11.548;2023-05-10T03:38:12;3.85;;;2.75;;
31390;SDS011;18022;45.492;11.548;2023-05-10T03:40:38;3.83;;;2.20;;
31390;SDS011;18022;45.492;11.548;2023-05-10T03:43:04;9.05;;;2.70;;
31390;SDS011;18022;45.492;11.548;2023-05-10T03:45:30;3.92;;;2.80;;
31390;SDS011;18022;45.492;11.548;2023-05-10T03:47:56;6.97;;;2.80;;
31390;SDS011;18022;45.492;11.548;2023-05-10T03:50:23;3.10;;;2.72;;
31390;SDS011;18022;45.492;11.548;2023-05-10T03:52:49;3.30;;;2.97;;
31390;SDS011;18022;45.492;11.548;2023-05-10T03:55:15;6.63;;;3.05;;
31390;SDS011;18022;45.492;11.548;2023-05-10T03:57:41;3.60;;;3.20;;
31390;SDS011;18022;45.492;11.548;2023-05-10T04:00:08;4.28;;;3.05;;
31390;SDS011;18022;45.492;11.548;2023-05-10T04:02:34;3.42;;;3.22;;
31390;SDS011;18022;45.492;11.548;2023-05-10T04:05:00;9.98;;;2.95;;
31390;SDS011;18022;45.492;11.548;2023-05-10T04:07:27;4.38;;;3.10;;
31390;SDS011;18022;45.492;11.548;2023-05-10T04:09:54;4.25;;;2.58;;
31390;SDS011;18022;45.492;11.548;2023-05-10T04:12:20;2.90;;;2.70;;
31390;SDS011;18022;45.492;11.548;2023-05-10T04:14:46;4.00;;;2.65;;
31390;SDS011;18022;45.492;11.548;2023-05-10T04:17:12;4.90;;;2.83;;
31390;SDS011;18022;45.492;11.548;2023-05-10T04:19:38;3.25;;;2.92;;
31390;SDS011;18022;45.492;11.548;2023-05-10T04:22:04;9.57;;;3.00;;
31390;SDS011;18022;45.492;11.548;2023-05-10T04:24:30;3.50;;;3.08;;
31390;SDS011;18022;45.492;11.548;2023-05-10T04:26:56;3.80;;;2.80;;
31390;SDS011;18022;45.492;11.548;2023-05-10T04:29:22;3.28;;;2.97;;
31390;SDS011;18022;45.492;11.548;2023-05-10T04:31:48;4.15;;;3.35;;
31390;SDS011;18022;45.492;11.548;2023-05-10T04:34:15;3.60;;;3.15;;
31390;SDS011;18022;45.492;11.548;2023-05-10T04:36:42;3.15;;;2.90;;
31390;SDS011;18022;45.492;11.548;2023-05-10T04:39:08;4.50;;;2.83;;
31390;SDS011;18022;45.492;11.548;2023-05-10T04:41:34;3.75;;;3.17;;
31390;SDS011;18022;45.492;11.548;2023-05-10T04:44:01;6.05;;;3.30;;
31390;SDS011;18022;45.492;11.548;2023-05-10T04:46:27;3.75;;;3.10;;
31390;SDS011;18022;45.492;11.548;2023-05-10T04:48:53;4.45;;;3.08;;
31390;SDS011;18022;45.492;11.548;2023-05-10T04:51:19;4.13;;;3.05;;
31390;SDS011;18022;45.492;11.548;2023-05-10T04:53:45;5.97;;;3.00;;
31390;SDS011;18022;45.492;11.548;2023-05-10T04:56:11;2.97;;;2.67;;
31390;SDS011;18022;45.492;11.548;2023-05-10T04:58:37;10.25;;;3.25;;
31390;SDS011;18022;45.492;11.548;2023-05-10T05:01:07;3.58;;;3.03;;
31390;SDS011;18022;45.492;11.548;2023-05-10T05:03:34;4.03;;;3.00;;
31390;SDS011;18022;45.492;11.548;2023-05-10T05:06:00;3.40;;;2.92;;
31390;SDS011;18022;45.492;11.548;2023-05-10T05:08:26;4.68;;;3.17;;
31390;SDS011;18022;45.492;11.548;2023-05-10T05:10:52;3.35;;;3.05;;
31390;SDS011;18022;45.492;11.548;2023-05-10T05:13:19;5.53;;;2.97;;
31390;SDS011;18022;45.492;11.548;2023-05-10T05:15:45;3.15;;;2.85;;
31390;SDS011;18022;45.492;11.548;2023-05-10T05:18:11;6.10;;;3.47;;
31390;SDS011;18022;45.492;11.548;2023-05-10T05:20:37;2.90;;;2.70;;
31390;SDS011;18022;45.492;11.548;2023-05-10T05:23:03;5.25;;;3.22;;
31390;SDS011;18022;45.492;11.548;2023-05-10T05:25:29;3.13;;;2.80;;
31390;SDS011;18022;45.492;11.548;2023-05-10T05:27:55;4.05;;;3.00;;
31390;SDS011;18022;45.492;11.548;2023-05-10T05:30:21;3.97;;;3.35;;
31390;SDS011;18022;45.492;11.548;2023-05-10T05:32:47;3.28;;;3.05;;
31390;SDS011;18022;45.492;11.548;2023-05-10T05:35:13;3.38;;;3.08;;
31390;SDS011;18022;45.492;11.548;2023-05-10T05:37:39;3.67;;;3.10;;
31390;SDS011;18022;45.492;11.548;2023-05-10T05:40:05;4.68;;;3.13;;
31390;SDS011;18022;45.492;11.548;2023-05-10T05:42:32;3.90;;;2.72;;
31390;SDS011;18022;45.492;11.548;2023-05-10T05:44:58;3.20;;;3.00;;
31390;SDS011;18022;45.492;11.548;2023-05-10T05:47:24;4.80;;;3.33;;
31390;SDS011;18022;45.492;11.548;2023-05-10T05:49:50;3.13;;;2.83;;
31390;SDS011;18022;45.492;11.548;2023-05-10T05:52:16;3.17;;;2.88;;
31390;SDS011;18022;45.492;11.548;2023-05-10T05:54:42;3.30;;;2.95;;
31390;SDS011;18022;45.492;11.548;2023-05-10T05:57:08;3.78;;;3.15;;
31390;SDS011;18022;45.492;11.548;2023-05-10T05:59:34;5.32;;;2.90;;
31390;SDS011;18022;45.492;11.548;2023-05-10T06:02:01;3.20;;;2.85;;
31390;SDS011;18022;45.492;11.548;2023-05-10T06:04:27;3.60;;;2.47;;
31390;SDS011;18022;45.492;11.548;2023-05-10T06:06:53;5.13;;;3.05;;
31390;SDS011;18022;45.492;11.548;2023-05-10T06:09:19;4.03;;;2.72;;
31390;SDS011;18022;45.492;11.548;2023-05-10T06:11:45;3.25;;;2.80;;
31390;SDS011;18022;45.492;11.548;2023-05-10T06:14:11;5.38;;;2.85;;
31390;SDS011;18022;45.492;11.548;2023-05-10T06:16:37;3.85;;;3.15;;
31390;SDS011;18022;45.492;11.548;2023-05-10T06:19:03;3.80;;;2.72;;
31390;SDS011;18022;45.492;11.548;2023-05-10T06:21:29;3.38;;;2.65;;
31390;SDS011;18022;45.492;11.548;2023-05-10T06:23:55;3.70;;;2.80;;
31390;SDS011;18022;45.492;11.548;2023-05-10T06:26:21;4.32;;;3.00;;
31390;SDS011;18022;45.492;11.548;2023-05-10T06:28:47;4.43;;;2.80;;
31390;SDS011;18022;45.492;11.548;2023-05-10T06:31:13;2.95;;;2.75;;
31390;SDS011;18022;45.492;11.548;2023-05-10T06:33:40;5.30;;;3.28;;
31390;SDS011;18022;45.492;11.548;2023-05-10T06:36:07;3.03;;;2.75;;
31390;SDS011;18022;45.492;11.548;2023-05-10T06:38:33;2.97;;;2.78;;
31390;SDS011;18022;45.492;11.548;2023-05-10T06:40:59;6.20;;;3.13;;
31390;SDS011;18022;45.492;11.548;2023-05-10T06:43:25;3.03;;;2.72;;
31390;SDS011;18022;45.492;11.548;2023-05-10T06:48:19;5.05;;;3.00;;
31390;SDS011;18022;45.492;11.548;2023-05-10T06:50:45;8.13;;;3.08;;
31390;SDS011;18022;45.492;11.548;2023-05-10T06:53:11;3.67;;;3.38;;
31390;SDS011;18022;45.492;11.548;2023-05-10T06:55:38;5.88;;;3.15;;
31390;SDS011;18022;45.492;11.548;2023-05-10T06:58:04;3.05;;;2.72;;
31390;SDS011;18022;45.492;11.548;2023-05-10T07:00:31;5.65;;;3.28;;
31390;SDS011;18022;45.492;11.548;2023-05-10T07:02:57;3.88;;;3.08;;
31390;SDS011;18022;45.492;11.548;2023-05-10T07:05:23;3.45;;;2.90;;
31390;SDS011;18022;45.492;11.548;2023-05-10T07:07:49;6.85;;;3.00;;
31390;SDS011;18022;45.492;11.548;2023-05-10T07:10:16;3.00;;;2.70;;
31390;SDS011;18022;45.492;11.548;2023-05-10T07:12:42;4.28;;;3.30;;
31390;SDS011;18022;45.492;11.548;2023-05-10T07:15:08;3.90;;;3.20;;
31390;SDS011;18022;45.492;11.548;2023-05-10T07:17:34;4.28;;;3.25;;
31390;SDS011;18022;45.492;11.548;2023-05-10T07:20:00;3.17;;;2.88;;
31390;SDS011;18022;45.492;11.548;2023-05-10T07:22:28;3.28;;;2.97;;
31390;SDS011;18022;45.492;11.548;2023-05-10T07:24:54;4.35;;;3.13;;
31390;SDS011;18022;45.492;11.548;2023-05-10T07:27:20;3.75;;;3.05;;
31390;SDS011;18022;45.492;11.548;2023-05-10T07:29:47;4.07;;;3.42;;
31390;SDS011;18022;45.492;11.548;2023-05-10T07:32:13;4.22;;;3.10;;
31390;SDS011;18022;45.492;11.548;2023-05-10T07:34:39;3.45;;;3.10;;
31390;SDS011;18022;45.492;11.548;2023-05-10T07:37:05;6.72;;;2.92;;
31390;SDS011;18022;45.492;11.548;2023-05-10T07:39:32;3.88;;;3.25;;
31390;SDS011;18022;45.492;11.548;2023-05-10T07:41:58;3.85;;;2.90;;
31390;SDS011;18022;45.492;11.548;2023-05-10T07:44:24;4.10;;;3.30;;
31390;SDS011;18022;45.492;11.548;2023-05-10T07:46:50;3.90;;;3.00;;
31390;SDS011;18022;45.492;11.548;2023-05-10T07:49:17;3.60;;;3.08;;
31390;SDS011;18022;45.492;11.548;2023-05-10T07:51:43;4.53;;;2.95;;
31390;SDS011;18022;45.492;11.548;2023-05-10T07:54:09;3.30;;;2.95;;
31390;SDS011;18022;45.492;11.548;2023-05-10T07:56:35;4.78;;;3.40;;
31390;SDS011;18022;45.492;11.548;2023-05-10T07:59:02;3.28;;;2.83;;
31390;SDS011;18022;45.492;11.548;2023-05-10T08:01:32;6.35;;;3.13;;
31390;SDS011;18022;45.492;11.548;2023-05-10T08:03:58;3.50;;;3.20;;
31390;SDS011;18022;45.492;11.548;2023-05-10T08:06:25;4.18;;;3.53;;
31390;SDS011;18022;45.492;11.548;2023-05-10T08:08:53;3.30;;;3.00;;
31390;SDS011;18022;45.492;11.548;2023-05-10T08:11:19;3.53;;;3.22;;
31390;SDS011;18022;45.492;11.548;2023-05-10T08:13:46;6.32;;;3.38;;
31390;SDS011;18022;45.492;11.548;2023-05-10T08:16:12;4.40;;;3.40;;
31390;SDS011;18022;45.492;11.548;2023-05-10T08:18:39;5.55;;;3.25;;
31390;SDS011;18022;45.492;11.548;2023-05-10T08:21:05;4.25;;;3.15;;
31390;SDS011;18022;45.492;11.548;2023-05-10T08:23:31;3.97;;;3.25;;
31390;SDS011;18022;45.492;11.548;2023-05-10T08:25:57;5.57;;;3.08;;
31390;SDS011;18022;45.492;11.548;2023-05-10T08:28:23;3.33;;;2.90;;
31390;SDS011;18022;45.492;11.548;2023-05-10T08:30:49;3.88;;;3.47;;
31390;SDS011;18022;45.492;11.548;2023-05-10T08:33:17;5.32;;;3.25;;
31390;SDS011;18022;45.492;11.548;2023-05-10T08:35:43;3.88;;;2.90;;
31390;SDS011;18022;45.492;11.548;2023-05-10T08:38:09;4.97;;;3.38;;
31390;SDS011;18022;45.492;11.548;2023-05-10T08:40:36;5.05;;;3.38;;
31390;SDS011;18022;45.492;11.548;2023-05-10T08:43:07;3.60;;;3.03;;
31390;SDS011;18022;45.492;11.548;2023-05-10T08:45:36;3.05;;;2.75;;
31390;SDS011;18022;45.492;11.548;2023-05-10T08:48:03;3.40;;;3.10;;
31390;SDS011;18022;45.492;11.548;2023-05-10T08:50:30;3.15;;;2.90;;
31390;SDS011;18022;45.492;11.548;2023-05-10T08:52:57;3.15;;;2.85;;
31390;SDS011;18022;45.492;11.548;2023-05-10T08:55:24;3.53;;;3.10;;
31390;SDS011;18022;45.492;11.548;2023-05-10T08:57:51;5.10;;;3.20;;
31390;SDS011;18022;45.492;11.548;2023-05-10T09:00:17;3.88;;;3.50;;
31390;SDS011;18022;45.492;11.548;2023-05-10T09:02:44;7.47;;;3.78;;
31390;SDS011;18022;45.492;11.548;2023-05-10T09:05:13;4.38;;;3.28;;
31390;SDS011;18022;45.492;11.548;2023-05-10T09:07:40;4.72;;;3.70;;
31390;SDS011;18022;45.492;11.548;2023-05-10T09:10:07;7.18;;;3.67;;
31390;SDS011;18022;45.492;11.548;2023-05-10T09:12:34;5.20;;;3.92;;
31390;SDS011;18022;45.492;11.548;2023-05-10T09:15:00;3.83;;;3.38;;
31390;SDS011;18022;45.492;11.548;2023-05-10T09:17:27;5.82;;;3.75;;
31390;SDS011;18022;45.492;11.548;2023-05-10T09:20:01;6.65;;;3.30;;
31390;SDS011;18022;45.492;11.548;2023-05-10T09:22:27;5.07;;;3.72;;
31390;SDS011;18022;45.492;11.548;2023-05-10T09:25:06;5.47;;;3.50;;
31390;SDS011;18022;45.492;11.548;2023-05-10T09:27:33;4.68;;;3.70;;
31390;SDS011;18022;45.492;11.548;2023-05-10T09:29:59;4.72;;;4.03;;
31390;SDS011;18022;45.492;11.548;2023-05-10T09:32:47;4.43;;;4.03;;
31390;SDS011;18022;45.492;11.548;2023-05-10T09:35:18;4.63;;;3.80;;
31390;SDS011;18022;45.492;11.548;2023-05-10T09:37:46;7.05;;;4.75;;
31390;SDS011;18022;45.492;11.548;2023-05-10T09:40:13;4.75;;;3.85;;
31390;SDS011;18022;45.492;11.548;2023-05-10T09:42:41;4.22;;;3.83;;
31390;SDS011;18022;45.492;11.548;2023-05-10T09:45:08;5.82;;;3.65;;
31390;SDS011;18022;45.492;11.548;2023-05-10T09:47:34;5.85;;;4.18;;
31390;SDS011;18022;45.492;11.548;2023-05-10T09:50:01;4.30;;;3.70;;
31390;SDS011;18022;45.492;11.548;2023-05-10T09:52:45;4.15;;;3.75;;
31390;SDS011;18022;45.492;11.548;2023-05-10T09:55:11;4.07;;;3.78;;
31390;SDS011;18022;45.492;11.548;2023-05-10T09:57:37;4.50;;;3.63;;
31390;SDS011;18022;45.492;11.548;2023-05-10T10:00:04;5.63;;;4.80;;
31390;SDS011;18022;45.492;11.548;2023-05-10T10:02:31;4.60;;;4.20;;
31390;SDS011;18022;45.492;11.548;2023-05-10T10:04:57;5.10;;;4.20;;
31390;SDS011;18022;45.492;11.548;2023-05-10T10:07:24;4.20;;;3.80;;
31390;SDS011;18022;45.492;11.548;2023-05-10T10:09:50;6.30;;;4.43;;
31390;SDS011;18022;45.492;11.548;2023-05-10T10:12:16;4.22;;;3.80;;
31390;SDS011;18022;45.492;11.548;2023-05-10T10:14:42;4.63;;;3.40;;
31390;SDS011;18022;45.492;11.548;2023-05-10T10:17:09;5.05;;;3.35;;
31390;SDS011;18022;45.492;11.548;2023-05-10T10:19:35;6.07;;;3.25;;
31390;SDS011;18022;45.492;11.548;2023-05-10T10:22:01;4.65;;;3.85;;
31390;SDS011;18022;45.492;11.548;2023-05-10T10:24:27;4.35;;;3.53;;
31390;SDS011;18022;45.492;11.548;2023-05-10T10:26:54;4.57;;;3.60;;
31390;SDS011;18022;45.492;11.548;2023-05-10T10:29:26;4.07;;;3.63;;
31390;SDS011;18022;45.492;11.548;2023-05-10T10:34:29;5.43;;;3.58;;
31390;SDS011;18022;45.492;11.548;2023-05-10T10:36:56;5.13;;;4.28;;
31390;SDS011;18022;45.492;11.548;2023-05-10T10:39:22;4.40;;;4.00;;
31390;SDS011;18022;45.492;11.548;2023-05-10T10:41:53;4.68;;;3.88;;
31390;SDS011;18022;45.492;11.548;2023-05-10T10:47:09;6.88;;;4.43;;
31390;SDS011;18022;45.492;11.548;2023-05-10T10:57:28;5.90;;;3.90;;
31390;SDS011;18022;45.492;11.548;2023-05-10T11:02:43;4.65;;;4.22;;
31390;SDS011;18022;45.492;11.548;2023-05-10T11:08:10;6.22;;;4.05;;
31390;SDS011;18022;45.492;11.548;2023-05-10T11:10:36;4.72;;;4.10;;
31390;SDS011;18022;45.492;11.548;2023-05-10T11:13:03;6.47;;;4.68;;
31390;SDS011;18022;45.492;11.548;2023-05-10T11:17:56;4.07;;;3.75;;
31390;SDS011;18022;45.492;11.548;2023-05-10T11:20:22;6.35;;;4.60;;
31390;SDS011;18022;45.492;11.548;2023-05-10T11:22:54;5.53;;;4.40;;
31390;SDS011;18022;45.492;11.548;2023-05-10T11:25:23;4.93;;;4.43;;
31390;SDS011;18022;45.492;11.548;2023-05-10T11:27:51;5.95;;;4.57;;
31390;SDS011;18022;45.492;11.548;2023-05-10T11:30:18;7.35;;;4.50;;
31390;SDS011;18022;45.492;11.548;2023-05-10T11:32:44;5.97;;;4.38;;
31390;SDS011;18022;45.492;11.548;2023-05-10T11:35:11;9.23;;;4.85;;
31390;SDS011;18022;45.492;11.548;2023-05-10T11:37:38;6.65;;;4.60;;
31390;SDS011;18022;45.492;11.548;2023-05-10T11:40:08;5.07;;;4.55;;
31390;SDS011;18022;45.492;11.548;2023-05-10T11:42:37;6.45;;;5.00;;
31390;SDS011;18022;45.492;11.548;2023-05-10T11:45:04;6.53;;;4.82;;
31390;SDS011;18022;45.492;11.548;2023-05-10T11:47:30;5.45;;;4.53;;
31390;SDS011;18022;45.492;11.548;2023-05-10T11:49:56;4.90;;;4.32;;
31390;SDS011;18022;45.492;11.548;2023-05-10T11:52:23;7.43;;;4.95;;
31390;SDS011;18022;45.492;11.548;2023-05-10T11:54:52;5.60;;;5.00;;
31390;SDS011;18022;45.492;11.548;2023-05-10T11:57:19;5.72;;;5.10;;
31390;SDS011;18022;45.492;11.548;2023-05-10T11:59:47;5.70;;;4.60;;
31390;SDS011;18022;45.492;11.548;2023-05-10T12:02:19;6.25;;;4.90;;
31390;SDS011;18022;45.492;11.548;2023-05-10T12:04:45;7.00;;;5.63;;
31390;SDS011;18022;45.492;11.548;2023-05-10T12:07:12;5.88;;;4.97;;
31390;SDS011;18022;45.492;11.548;2023-05-10T12:09:42;5.93;;;5.03;;
31390;SDS011;18022;45.492;11.548;2023-05-10T12:12:08;6.30;;;5.22;;
31390;SDS011;18022;45.492;11.548;2023-05-10T12:14:35;5.53;;;4.90;;
31390;SDS011;18022;45.492;11.548;2023-05-10T12:17:01;6.13;;;4.97;;
31390;SDS011;18022;45.492;11.548;2023-05-10T12:19:27;5.78;;;4.93;;
31390;SDS011;18022;45.492;11.548;2023-05-10T12:21:53;6.70;;;5.60;;
31390;SDS011;18022;45.492;11.548;2023-05-10T12:24:19;6.25;;;5.53;;
31390;SDS011;18022;45.492;11.548;2023-05-10T12:26:46;8.70;;;5.38;;
31390;SDS011;18022;45.492;11.548;2023-05-10T12:29:16;7.60;;;5.88;;
31390;SDS011;18022;45.492;11.548;2023-05-10T12:31:50;10.23;;;5.88;;
31390;SDS011;18022;45.492;11.548;2023-05-10T12:34:32;7.15;;;6.07;;
31390;SDS011;18022;45.492;11.548;2023-05-10T12:36:59;6.55;;;5.43;;
31390;SDS011;18022;45.492;11.548;2023-05-10T12:39:25;7.22;;;5.72;;
31390;SDS011;18022;45.492;11.548;2023-05-10T12:41:51;6.55;;;5.95;;
31390;SDS011;18022;45.492;11.548;2023-05-10T12:44:17;7.95;;;6.30;;
31390;SDS011;18022;45.492;11.548;2023-05-10T12:46:44;7.18;;;6.30;;
31390;SDS011;18022;45.492;11.548;2023-05-10T12:49:10;7.57;;;6.25;;
31390;SDS011;18022;45.492;11.548;2023-05-10T12:51:36;8.13;;;6.38;;
31390;SDS011;18022;45.492;11.548;2023-05-10T12:54:02;8.30;;;6.47;;
31390;SDS011;18022;45.492;11.548;2023-05-10T12:56:28;6.18;;;5.35;;
31390;SDS011;18022;45.492;11.548;2023-05-10T12:58:54;6.53;;;5.25;;
31390;SDS011;18022;45.492;11.548;2023-05-10T13:01:20;6.13;;;5.53;;
31390;SDS011;18022;45.492;11.548;2023-05-10T13:03:46;6.18;;;4.93;;
31390;SDS011;18022;45.492;11.548;2023-05-10T13:06:13;6.65;;;5.38;;
31390;SDS011;18022;45.492;11.548;2023-05-10T13:08:39;7.50;;;5.38;;
31390;SDS011;18022;45.492;11.548;2023-05-10T13:11:05;7.15;;;6.35;;
31390;SDS011;18022;45.492;11.548;2023-05-10T13:13:31;5.95;;;5.20;;
31390;SDS011;18022;45.492;11.548;2023-05-10T13:15:57;6.68;;;5.80;;
31390;SDS011;18022;45.492;11.548;2023-05-10T13:18:23;6.25;;;5.65;;
31390;SDS011;18022;45.492;11.548;2023-05-10T13:20:51;6.75;;;5.78;;
31390;SDS011;18022;45.492;11.548;2023-05-10T13:23:17;7.28;;;5.80;;
31390;SDS011;18022;45.492;11.548;2023-05-10T13:25:43;6.40;;;5.70;;
31390;SDS011;18022;45.492;11.548;2023-05-10T13:28:09;7.20;;;5.88;;
31390;SDS011;18022;45.492;11.548;2023-05-10T13:30:35;6.88;;;6.15;;
31390;SDS011;18022;45.492;11.548;2023-05-10T13:33:01;6.35;;;5.70;;
31390;SDS011;18022;45.492;11.548;2023-05-10T13:35:27;7.53;;;6.20;;
31390;SDS011;18022;45.492;11.548;2023-05-10T13:37:53;6.57;;;5.88;;
31390;SDS011;18022;45.492;11.548;2023-05-10T13:40:21;7.93;;;6.03;;
31390;SDS011;18022;45.492;11.548;2023-05-10T13:42:47;7.85;;;6.07;;
31390;SDS011;18022;45.492;11.548;2023-05-10T13:45:13;6.90;;;6.15;;
31390;SDS011;18022;45.492;11.548;2023-05-10T13:47:39;8.68;;;6.38;;
31390;SDS011;18022;45.492;11.548;2023-05-10T13:50:06;7.18;;;6.22;;
31390;SDS011;18022;45.492;11.548;2023-05-10T13:52:32;7.38;;;6.15;;
31390;SDS011;18022;45.492;11.548;2023-05-10T13:54:58;9.05;;;5.95;;
31390;SDS011;18022;45.492;11.548;2023-05-10T13:57:24;8.00;;;7.20;;
31390;SDS011;18022;45.492;11.548;2023-05-10T13:59:51;8.85;;;6.82;;
31390;SDS011;18022;45.492;11.548;2023-05-10T14:02:17;11.20;;;7.60;;
31390;SDS011;18022;45.492;11.548;2023-05-10T14:04:43;11.00;;;7.00;;
31390;SDS011;18022;45.492;11.548;2023-05-10T14:07:09;10.10;;;7.35;;
31390;SDS011;18022;45.492;11.548;2023-05-10T14:09:35;9.82;;;7.38;;
31390;SDS011;18022;45.492;11.548;2023-05-10T14:12:01;16.77;;;7.40;;
31390;SDS011;18022;45.492;11.548;2023-05-10T14:14:27;10.68;;;7.63;;
31390;SDS011;18022;45.492;11.548;2023-05-10T14:16:54;13.50;;;7.50;;
31390;SDS011;18022;45.492;11.548;2023-05-10T14:19:20;11.18;;;7.07;;
31390;SDS011;18022;45.492;11.548;2023-05-10T14:21:46;8.85;;;7.85;;
31390;SDS011;18022;45.492;11.548;2023-05-10T14:24:12;8.85;;;7.13;;
31390;SDS011;18022;45.492;11.548;2023-05-10T14:26:38;9.93;;;7.03;;
31390;SDS011;18022;45.492;11.548;2023-05-10T14:29:04;8.80;;;7.28;;
31390;SDS011;18022;45.492;11.548;2023-05-10T14:31:30;12.43;;;7.20;;
31390;SDS011;18022;45.492;11.548;2023-05-10T14:33:56;9.18;;;7.25;;
31390;SDS011;18022;45.492;11.548;2023-05-10T14:36:22;8.15;;;7.03;;
31390;SDS011;18022;45.492;11.548;2023-05-10T14:38:48;7.38;;;6.47;;
31390;SDS011;18022;45.492;11.548;2023-05-10T14:41:15;8.93;;;6.55;;
31390;SDS011;18022;45.492;11.548;2023-05-10T14:43:42;7.83;;;6.03;;
31390;SDS011;18022;45.492;11.548;2023-05-10T14:46:08;6.97;;;5.85;;
31390;SDS011;18022;45.492;11.548;2023-05-10T14:48:34;8.30;;;6.15;;
31390;SDS011;18022;45.492;11.548;2023-05-10T14:51:01;6.93;;;6.22;;
31390;SDS011;18022;45.492;11.548;2023-05-10T14:53:27;9.40;;;6.40;;
31390;SDS011;18022;45.492;11.548;2023-05-10T14:55:53;7.13;;;6.43;;
31390;SDS011;18022;45.492;11.548;2023-05-10T14:58:19;7.22;;;6.38;;
31390;SDS011;18022;45.492;11.548;2023-05-10T15:00:45;8.05;;;6.13;;
31390;SDS011;18022;45.492;11.548;2023-05-10T15:03:11;7.57;;;6.50;;
31390;SDS011;18022;45.492;11.548;2023-05-10T15:05:37;7.90;;;7.07;;
31390;SDS011;18022;45.492;11.548;2023-05-10T15:08:03;7.75;;;6.72;;
31390;SDS011;18022;45.492;11.548;2023-05-10T15:10:30;7.97;;;7.18;;